EDI weather

Public forecast

Using degrees Celsius for public forecast. Weather courtesy of forecast.io.

Current aviation weather report (METAR) for Edinburgh Airport

Retrieved 2020/08/12 23:20 UTC (15 minutes ago):

EGPH 122320Z 04005KT 8000 NSC 16/15 Q1018

Aviation forecast (TAF) for Edinburgh Airport

Retrieved 2020/08/12 18:00 UTC (6 hours ago):

TAF EGPH 121654Z 1218/1318 06009KT 9999 FEW005 TEMPO 1220/1311 6000 BKN005 PROB40 1221/1308 0300 FG BKN001